Time;durP1;ratioP1;P1;durP2;ratioP2;P2;SDS_P1;SDS_P2;PMS_P1;PMS_P2;Temp;Humidity;BMP_temperature;BMP_pressure;BME280_temperature;BME280_humidity;BME280_pressure;Samples;Min_cycle;Max_cycle;Signal;HPM_P1;HPM_P2
2024/01/01 00:00:28;;;;;;;;;;;;;;;25.38;37.92;93690.31;4956949;28;9594;-35
2024/01/01 00:02:54;;;;;;;;;;;;;;;25.36;37.92;93679.06;4954679;28;7169;-35
2024/01/01 00:05:20;;;;;;;;;;;;;;;25.33;38.08;93669.13;4956348;28;7246;-35
2024/01/01 00:07:50;;;;;;;;;;;;;;;25.31;37.81;93666.16;4956456;28;8755;-35
2024/01/01 00:10:19;;;;;;;;;;;;;;;25.36;37.31;93670.81;4951262;28;7346;-35
2024/01/01 00:12:51;;;;;;;;;;;;;;;25.31;37.86;93669.66;4955246;28;9134;-35
2024/01/01 00:15:18;;;;;;;;;;;;;;;25.39;38.00;93664.25;4949720;28;7271;-35
2024/01/01 00:17:44;;;;;;;;;;;;;;;25.37;37.86;93664.03;4942884;28;8212;-35
2024/01/01 00:20:10;;;;;;;;;;;;;;;25.34;37.36;93665.09;4950405;28;9580;-35
2024/01/01 00:22:37;;;;;;;;;;;;;;;25.36;37.59;93659.78;4937765;29;7405;-35
2024/01/01 00:25:07;;;;;;;;;;;;;;;25.35;37.27;93663.81;4956809;28;7138;-35
2024/01/01 00:28:09;;;;;;;;;;;;;;;25.39;37.47;93656.00;4963720;28;9318;-35
2024/01/01 00:30:48;;;;;;;;;;;;;;;25.40;37.62;93660.97;4957483;28;7339;-35
2024/01/01 00:33:57;;;;;;;;;;;;;;;25.41;37.43;93656.97;4964549;28;7347;-35
2024/01/01 00:36:41;;;;;;;;;;;;;;;25.41;37.56;93653.47;4967825;28;7140;-35
2024/01/01 00:39:40;;;;;;;;;;;;;;;25.38;37.24;93649.75;4955815;29;9114;-37
2024/01/01 00:42:42;;;;;;;;;;;;;;;25.37;38.05;93644.78;4957781;28;7674;-36
2024/01/01 00:45:21;;;;;;;;;;;;;;;25.37;37.21;93640.00;4877684;29;9117;-36
2024/01/01 00:47:57;;;;;;;;;;;;;;;25.34;37.26;93624.53;4878028;29;9099;-36
2024/01/01 00:50:23;;;;;;;;;;;;;;;25.37;37.77;93628.25;4861531;29;7293;-36
2024/01/01 00:52:49;;;;;;;;;;;;;;;25.36;38.08;93626.75;4866489;29;7060;-36
2024/01/01 00:55:27;;;;;;;;;;;;;;;25.37;37.23;93634.50;4877889;29;7428;-36
2024/01/01 00:58:07;;;;;;;;;;;;;;;25.38;38.14;93629.75;4861856;29;9222;-36
2024/01/01 01:01:07;;;;;;;;;;;;;;;25.38;37.13;93630.47;4855796;29;7070;-36
2024/01/01 01:03:47;;;;;;;;;;;;;;;25.39;37.73;93631.22;4855495;29;7252;-36
2024/01/01 01:06:26;;;;;;;;;;;;;;;25.37;38.04;93634.50;4809547;29;7376;-36
2024/01/01 01:08:55;;;;;;;;;;;;;;;25.38;37.57;93638.00;4840321;29;7466;-36
2024/01/01 01:11:30;;;;;;;;;;;;;;;25.38;37.26;93633.22;4824149;29;8788;-36
2024/01/01 01:14:07;;;;;;;;;;;;;;;25.40;37.83;93640.97;4825544;29;8727;-36
2024/01/01 01:16:37;;;;;;;;;;;;;;;25.38;37.57;93635.97;4825558;29;6960;-36
2024/01/01 01:19:04;;;;;;;;;;;;;;;25.39;37.41;93633.97;4825596;29;8999;-36
2024/01/01 01:21:47;;;;;;;;;;;;;;;25.42;37.47;93646.72;4870805;29;7649;-36
2024/01/01 01:24:17;;;;;;;;;;;;;;;25.43;38.01;93648.94;4909424;29;9315;-36
2024/01/01 01:26:44;;;;;;;;;;;;;;;25.43;37.71;93648.19;4915486;29;9123;-36
2024/01/01 01:29:11;;;;;;;;;;;;;;;25.42;37.50;93646.72;4914996;29;9449;-36
2024/01/01 01:31:39;;;;;;;;;;;;;;;25.42;37.62;93646.72;4926468;29;7150;-36
2024/01/01 01:34:05;;;;;;;;;;;;;;;25.40;37.47;93640.97;4909467;29;9062;-36
2024/01/01 01:36:32;;;;;;;;;;;;;;;25.36;37.76;93635.00;4917555;29;7264;-36
2024/01/01 01:38:58;;;;;;;;;;;;;;;25.41;37.09;93634.19;4932554;28;9590;-36
2024/01/01 01:41:25;;;;;;;;;;;;;;;25.38;37.26;93627.00;4972854;28;9053;-36
2024/01/01 01:43:51;;;;;;;;;;;;;;;25.38;37.44;93624.97;4958538;28;8403;-36
2024/01/01 01:46:22;;;;;;;;;;;;;;;25.36;37.14;93629.50;4952367;28;7266;-36
2024/01/01 01:48:48;;;;;;;;;;;;;;;25.36;37.15;93627.50;4968110;28;9094;-36
2024/01/01 01:51:16;;;;;;;;;;;;;;;25.37;37.75;93628.25;4945518;28;7264;-35
2024/01/01 01:53:46;;;;;;;;;;;;;;;25.36;37.19;93624.75;4942743;28;7274;-35
2024/01/01 01:56:17;;;;;;;;;;;;;;;25.35;37.43;93620.53;4949510;28;7283;-35
2024/01/01 01:58:44;;;;;;;;;;;;;;;25.33;37.11;93616.81;4963038;28;7153;-35
2024/01/01 02:01:12;;;;;;;;;;;;;;;25.28;38.16;93620.41;4945508;28;8771;-35
2024/01/01 02:03:42;;;;;;;;;;;;;;;25.30;38.24;93617.88;4957607;28;9436;-35
2024/01/01 02:06:08;;;;;;;;;;;;;;;25.31;37.60;93619.34;4974860;28;9487;-35
2024/01/01 02:08:35;;;;;;;;;;;;;;;25.30;37.54;93617.88;4956523;28;7213;-35
2024/01/01 02:11:04;;;;;;;;;;;;;;;25.31;37.24;93619.34;4973769;28;9704;-35
2024/01/01 02:13:33;;;;;;;;;;;;;;;25.27;37.46;93611.41;4957973;28;9185;-35
2024/01/01 02:16:00;;;;;;;;;;;;;;;25.29;38.18;93617.13;4974737;28;7147;-35
2024/01/01 02:18:28;;;;;;;;;;;;;;;25.26;37.60;93620.19;4953633;28;9173;-35
2024/01/01 02:20:56;;;;;;;;;;;;;;;25.28;37.28;93617.66;4962692;28;7715;-35
2024/01/01 02:23:24;;;;;;;;;;;;;;;25.26;37.87;93618.19;4952569;28;7242;-35
2024/01/01 02:25:59;;;;;;;;;;;;;;;25.28;38.12;93628.66;4971261;28;8256;-35
2024/01/01 02:28:25;;;;;;;;;;;;;;;25.21;38.33;93632.03;4954482;28;9081;-35
2024/01/01 02:30:51;;;;;;;;;;;;;;;25.26;37.65;93639.47;4941554;28;7409;-35
2024/01/01 02:33:19;;;;;;;;;;;;;;;25.27;37.55;93643.69;4956193;28;9868;-35
2024/01/01 02:35:45;;;;;;;;;;;;;;;25.30;37.15;93648.13;4969923;28;7073;-35
2024/01/01 02:38:17;;;;;;;;;;;;;;;25.29;37.23;93652.91;4972736;28;7008;-35
2024/01/01 02:41:09;;;;;;;;;;;;;;;25.29;38.14;93660.44;4964378;28;7258;-35
2024/01/01 02:43:39;;;;;;;;;;;;;;;25.26;38.03;93661.47;4957003;28;8738;-35
2024/01/01 02:46:05;;;;;;;;;;;;;;;25.23;38.14;93663.25;4958034;28;7396;-35
2024/01/01 02:48:45;;;;;;;;;;;;;;;25.25;37.30;93665.50;4956183;28;7246;-35
2024/01/01 02:51:11;;;;;;;;;;;;;;;25.26;37.90;93666.97;4956681;28;9407;-35
2024/01/01 02:53:39;;;;;;;;;;;;;;;25.28;38.00;93676.19;4940313;28;8747;-35
2024/01/01 02:56:38;;;;;;;;;;;;;;;25.26;38.20;93673.22;4940724;28;7533;-35
2024/01/01 02:59:12;;;;;;;;;;;;;;;25.22;38.00;93672.06;4959650;28;9092;-36
2024/01/01 03:01:50;;;;;;;;;;;;;;;25.20;38.06;93678.09;4956082;28;9259;-35
2024/01/01 03:04:31;;;;;;;;;;;;;;;25.24;37.27;93697.03;4959672;28;8731;-36
2024/01/01 03:07:18;;;;;;;;;;;;;;;25.24;37.74;93708.03;4967326;28;8862;-35
2024/01/01 03:10:15;;;;;;;;;;;;;;;25.21;37.74;93723.59;4960122;28;7251;-35
2024/01/01 03:12:43;;;;;;;;;;;;;;;25.23;38.11;93729.31;4914114;29;9104;-36
2024/01/01 03:15:09;;;;;;;;;;;;;;;25.22;37.24;93736.09;4896743;29;9207;-35
2024/01/01 03:17:35;;;;;;;;;;;;;;;25.24;37.16;93732.81;4898028;29;7919;-35
2024/01/01 03:20:04;;;;;;;;;;;;;;;25.22;38.02;93732.59;4900267;29;7889;-35
2024/01/01 03:22:42;;;;;;;;;;;;;;;25.24;37.57;93752.09;4912713;29;7901;-35
2024/01/01 03:25:09;;;;;;;;;;;;;;;25.25;37.22;93746.03;4900762;29;9120;-35
2024/01/01 03:27:44;;;;;;;;;;;;;;;25.24;37.73;93743.81;4913703;29;8758;-35
2024/01/01 03:30:24;;;;;;;;;;;;;;;25.24;37.40;93757.59;4899613;29;8748;-37
2024/01/01 03:32:51;;;;;;;;;;;;;;;25.29;37.54;93754.03;4899796;29;9060;-37
2024/01/01 03:35:19;;;;;;;;;;;;;;;25.26;37.36;93728.28;4909210;29;7238;-37
2024/01/01 03:37:45;;;;;;;;;;;;;;;25.23;37.18;93734.81;4915392;29;7149;-37
2024/01/01 03:40:14;;;;;;;;;;;;;;;25.21;37.66;93726.34;4911075;29;9115;-37
2024/01/01 03:42:56;;;;;;;;;;;;;;;25.21;37.26;93736.59;4892126;29;9171;-37
2024/01/01 03:45:35;;;;;;;;;;;;;;;25.18;37.42;93743.19;4899165;29;7000;-37
2024/01/01 03:48:03;;;;;;;;;;;;;;;25.17;37.33;93764.44;4903222;28;9226;-37
2024/01/01 03:50:35;;;;;;;;;;;;;;;25.14;38.09;93765.47;4965981;28;9043;-37
2024/01/01 03:53:02;;;;;;;;;;;;;;;25.13;37.42;93768.75;4965758;28;7252;-37
2024/01/01 03:55:30;;;;;;;;;;;;;;;25.10;38.07;93764.31;4975477;28;8765;-37
2024/01/01 03:58:22;;;;;;;;;;;;;;;25.09;38.23;93773.81;4968876;28;7092;-37
2024/01/01 04:00:55;;;;;;;;;;;;;;;25.08;38.26;93769.56;4967125;28;9644;-37
2024/01/01 04:03:21;;;;;;;;;;;;;;;25.09;37.86;93769.06;4960446;28;6987;-37
2024/01/01 04:05:47;;;;;;;;;;;;;;;25.11;38.56;93765.78;4955766;28;9056;-37
2024/01/01 04:08:13;;;;;;;;;;;;;;;25.10;38.69;93761.56;4943986;28;7265;-37
2024/01/01 04:10:39;;;;;;;;;;;;;;;25.10;38.14;93750.56;4969405;28;7104;-37
2024/01/01 04:13:05;;;;;;;;;;;;;;;25.09;37.91;93752.56;4969078;28;6999;-37
2024/01/01 04:15:32;;;;;;;;;;;;;;;25.05;38.47;93738.38;4955638;28;7227;-37
2024/01/01 04:17:58;;;;;;;;;;;;;;;25.08;37.96;93736.56;4946847;29;7262;-37
2024/01/01 04:20:26;;;;;;;;;;;;;;;25.10;38.57;93734.03;4942356;28;9440;-37
2024/01/01 04:22:54;;;;;;;;;;;;;;;25.09;38.34;93751.81;4955461;28;9179;-37
2024/01/01 04:25:23;;;;;;;;;;;;;;;25.08;38.21;93755.81;4970721;28;7254;-37
2024/01/01 04:27:51;;;;;;;;;;;;;;;25.01;38.15;93750.94;4953355;28;9245;-37
2024/01/01 04:30:17;;;;;;;;;;;;;;;25.06;37.80;93761.84;4962728;28;8275;-37
2024/01/01 04:32:44;;;;;;;;;;;;;;;25.07;37.59;93763.34;4973308;28;8964;-37
2024/01/01 04:35:16;;;;;;;;;;;;;;;25.05;38.15;93752.13;4974656;28;7324;-37
2024/01/01 04:37:44;;;;;;;;;;;;;;;25.07;38.55;93754.34;4956340;28;7053;-37
2024/01/01 04:40:16;;;;;;;;;;;;;;;25.05;38.32;93749.38;4971272;28;7042;-37
2024/01/01 04:42:50;;;;;;;;;;;;;;;25.00;38.31;93741.94;4956589;28;8747;-37
2024/01/01 04:45:19;;;;;;;;;;;;;;;25.06;38.32;93753.59;4956354;28;7319;-37
2024/01/01 04:47:47;;;;;;;;;;;;;;;25.07;37.72;93759.84;4953696;29;7497;-37
2024/01/01 04:50:24;;;;;;;;;;;;;;;25.07;37.67;93755.09;4953579;28;7312;-37
2024/01/01 04:52:58;;;;;;;;;;;;;;;25.07;37.89;93757.09;4974973;28;9132;-37
2024/01/01 04:55:59;;;;;;;;;;;;;;;25.07;38.08;93760.59;4957221;28;7267;-37
2024/01/01 04:58:26;;;;;;;;;;;;;;;25.04;38.15;93761.63;4891213;29;7012;-37
2024/01/01 05:00:52;;;;;;;;;;;;;;;25.05;38.05;93759.63;4884162;29;9111;-37
2024/01/01 05:03:42;;;;;;;;;;;;;;;25.04;37.86;93760.88;4883759;29;7035;-37
2024/01/01 05:06:56;;;;;;;;;;;;;;;25.03;37.98;93760.16;4899570;29;7073;-37
2024/01/01 05:09:35;;;;;;;;;;;;;;;25.03;37.84;93760.16;4847975;29;9101;-37
2024/01/01 05:12:01;;;;;;;;;;;;;;;25.03;38.58;93760.16;4862397;29;7322;-37
2024/01/01 05:14:27;;;;;;;;;;;;;;;25.01;38.62;93756.44;4851610;29;7198;-37
2024/01/01 05:17:10;;;;;;;;;;;;;;;25.04;38.41;93758.13;4840559;29;9051;-37
2024/01/01 05:19:36;;;;;;;;;;;;;;;25.04;38.09;93755.38;4835615;29;7249;-58
2024/01/01 05:22:14;;;;;;;;;;;;;;;25.01;38.76;93759.19;4855542;29;7262;-58
2024/01/01 05:25:14;;;;;;;;;;;;;;;25.02;38.91;93763.41;4854244;29;7250;-58
2024/01/01 05:27:49;;;;;;;;;;;;;;;24.99;38.83;93756.94;4836400;29;7006;-58
2024/01/01 05:30:32;;;;;;;;;;;;;;;24.96;38.82;93760.75;4837674;29;7078;-57
2024/01/01 05:33:24;;;;;;;;;;;;;;;24.98;38.36;93757.47;4895834;29;7236;-58
2024/01/01 05:36:44;;;;;;;;;;;;;;;24.97;38.87;93758.75;4916071;29;7828;-57
2024/01/01 05:39:11;;;;;;;;;;;;;;;25.03;38.56;93757.41;4910529;29;6993;-58
2024/01/01 05:41:45;;;;;;;;;;;;;;;25.03;38.35;93762.16;4909084;29;9106;-57
2024/01/01 05:44:22;;;;;;;;;;;;;;;25.04;38.62;93760.88;4906122;29;7066;-58
2024/01/01 05:46:55;;;;;;;;;;;;;;;25.05;38.58;93757.63;4973696;28;9479;-58
2024/01/01 05:49:23;;;;;;;;;;;;;;;25.06;38.85;93761.09;4961045;28;7287;-57
2024/01/01 05:51:49;;;;;;;;;;;;;;;25.04;38.80;93758.13;4958411;28;7012;-57
2024/01/01 05:54:28;;;;;;;;;;;;;;;25.05;38.32;93765.13;4958677;28;7768;-58
2024/01/01 05:57:21;;;;;;;;;;;;;;;25.05;38.23;93765.88;4977401;28;7255;-58
2024/01/01 05:59:47;;;;;;;;;;;;;;;25.04;38.14;93767.13;4971884;28;7202;-57
2024/01/01 06:02:39;;;;;;;;;;;;;;;25.04;38.28;93767.13;4959998;28;7019;-57
2024/01/01 06:05:14;;;;;;;;;;;;;;;25.04;38.23;93772.63;4887454;29;9100;-57
2024/01/01 06:07:52;;;;;;;;;;;;;;;25.04;38.89;93777.38;4882703;29;7393;-57
2024/01/01 06:10:18;;;;;;;;;;;;;;;25.02;38.15;93769.66;4894085;29;9450;-58
2024/01/01 06:13:23;;;;;;;;;;;;;;;25.03;37.84;93773.16;4898918;29;7202;-57
2024/01/01 06:16:26;;;;;;;;;;;;;;;25.04;38.58;93778.13;4898951;29;9097;-58
2024/01/01 06:18:53;;;;;;;;;;;;;;;25.01;38.07;93775.69;4861132;29;9138;-58
2024/01/01 06:21:34;;;;;;;;;;;;;;;25.02;38.20;93771.66;4861197;29;8810;-58
2024/01/01 06:24:01;;;;;;;;;;;;;;;25.04;38.31;93774.63;4856937;29;9047;-57
2024/01/01 06:26:41;;;;;;;;;;;;;;;25.03;38.96;93773.16;4845334;29;9085;-57
2024/01/01 06:29:07;;;;;;;;;;;;;;;25.01;38.41;93773.66;4860652;29;9676;-44
2024/01/01 06:31:34;;;;;;;;;;;;;;;25.00;38.09;93780.44;4860922;29;7042;-39
2024/01/01 06:37:58;;;;;;;;;;;;;;;25.04;38.90;93769.88;4836858;29;8818;-39
2024/01/01 06:40:49;;;;;;;;;;;;;;;25.04;38.77;93782.91;4841101;29;7056;-37
2024/01/01 06:43:15;;;;;;;;;;;;;;;25.01;38.06;93794.97;4875921;29;7412;-37
2024/01/01 06:45:43;;;;;;;;;;;;;;;25.02;38.43;93779.91;4864132;29;9274;-37
2024/01/01 06:48:22;;;;;;;;;;;;;;;24.99;38.58;93789.22;4873401;29;9448;-37
2024/01/01 06:50:49;;;;;;;;;;;;;;;24.95;39.11;93803.28;4877404;29;7239;-37
2024/01/01 06:53:30;;;;;;;;;;;;;;;24.96;38.67;93804.03;4893296;29;9160;-37
2024/01/01 06:56:20;;;;;;;;;;;;;;;24.99;38.99;93797.50;4902406;29;9141;-37
2024/01/01 06:58:47;;;;;;;;;;;;;;;25.01;38.04;93795.69;4903564;29;7004;-37
2024/01/01 07:01:15;;;;;;;;;;;;;;;25.01;38.89;93805.97;4894449;29;7268;-37
2024/01/01 07:03:43;;;;;;;;;;;;;;;25.03;38.10;93808.94;4906747;29;9082;-37
2024/01/01 07:06:27;;;;;;;;;;;;;;;25.03;38.19;93811.69;4888246;29;9469;-37
2024/01/01 07:08:57;;;;;;;;;;;;;;;25.03;38.27;93811.69;4896435;29;8784;-37
2024/01/01 07:11:25;;;;;;;;;;;;;;;25.01;38.82;93801.19;4894121;29;9319;-37
2024/01/01 07:13:54;;;;;;;;;;;;;;;25.03;39.04;93814.44;4910816;28;7202;-37
2024/01/01 07:16:21;;;;;;;;;;;;;;;25.03;38.91;93825.44;4947298;28;8712;-37
2024/01/01 07:18:53;;;;;;;;;;;;;;;25.01;38.38;93822.47;4943623;28;9077;-37
2024/01/01 07:21:20;;;;;;;;;;;;;;;25.04;38.59;93826.91;4949500;28;9352;-37
2024/01/01 07:23:46;;;;;;;;;;;;;;;25.03;38.82;93833.69;4958095;28;7251;-37
2024/01/01 07:26:14;;;;;;;;;;;;;;;25.05;38.07;93840.16;4976051;28;9086;-37
2024/01/01 07:28:47;;;;;;;;;;;;;;;25.03;39.26;93836.44;4960639;28;9497;-37
2024/01/01 07:31:22;;;;;;;;;;;;;;;25.07;37.97;93854.16;4966157;28;9298;-37
2024/01/01 07:33:47;;;;;;;;;;;;;;;25.06;38.32;93855.41;4966559;28;9240;-37
2024/01/01 07:36:17;;;;;;;;;;;;;;;25.04;38.48;93852.44;4963167;28;8197;-37
2024/01/01 07:38:49;;;;;;;;;;;;;;;25.04;38.92;93860.69;4957829;28;7147;-37
2024/01/01 07:41:30;;;;;;;;;;;;;;;24.98;38.33;93868.28;4964691;28;9081;-37
2024/01/01 07:43:56;;;;;;;;;;;;;;;24.94;38.86;93867.81;4955267;28;7290;-37
2024/01/01 07:46:42;;;;;;;;;;;;;;;24.99;38.26;93869.03;4954803;28;7261;-37
2024/01/01 07:49:27;;;;;;;;;;;;;;;25.00;38.97;93870.50;4956990;28;9161;-37
2024/01/01 07:52:04;;;;;;;;;;;;;;;25.02;38.54;93874.22;4967474;28;9101;-37
2024/01/01 07:54:30;;;;;;;;;;;;;;;25.03;38.08;93863.97;4958709;28;7061;-37
2024/01/01 07:57:33;;;;;;;;;;;;;;;25.01;38.84;93855.47;4954879;28;9035;-37
2024/01/01 08:00:18;;;;;;;;;;;;;;;24.95;39.20;93868.53;4888837;29;9157;-36
2024/01/01 08:02:52;;;;;;;;;;;;;;;24.91;38.36;93866.09;4888520;29;9404;-36
2024/01/01 08:05:19;;;;;;;;;;;;;;;24.93;39.07;93866.31;4878121;29;7058;-36
2024/01/01 08:07:48;;;;;;;;;;;;;;;24.96;38.17;93868.03;4871805;29;6997;-36
2024/01/01 08:10:20;;;;;;;;;;;;;;;24.97;38.16;93872.28;4886939;29;9079;-36
2024/01/01 08:12:46;;;;;;;;;;;;;;;24.96;38.38;93870.78;4879259;29;9167;-36
2024/01/01 08:15:12;;;;;;;;;;;;;;;24.93;38.95;93871.81;4867972;29;9046;-36
2024/01/01 08:17:37;;;;;;;;;;;;;;;24.97;38.33;93857.78;4877258;29;8147;-36
2024/01/01 08:20:06;;;;;;;;;;;;;;;25.00;38.13;93859.50;4873307;29;8478;-36
2024/01/01 08:22:33;;;;;;;;;;;;;;;25.00;38.24;93856.72;4890301;29;7246;-36
2024/01/01 08:25:01;;;;;;;;;;;;;;;25.00;38.96;93851.22;4883781;29;6978;-36
2024/01/01 08:27:34;;;;;;;;;;;;;;;24.99;38.75;93864.25;4870606;29;9177;-36
2024/01/01 08:30:05;;;;;;;;;;;;;;;24.99;38.68;93860.75;4877760;29;9536;-36
2024/01/01 08:32:34;;;;;;;;;;;;;;;25.01;38.46;93861.72;4862523;29;7328;-36
2024/01/01 08:35:00;;;;;;;;;;;;;;;25.01;38.95;93852.72;4952361;28;7349;-36
2024/01/01 08:37:26;;;;;;;;;;;;;;;25.00;38.48;93860.25;4958887;28;9272;-36
2024/01/01 08:39:52;;;;;;;;;;;;;;;24.98;38.63;93856.50;4957744;28;8780;-36
2024/01/01 08:42:21;;;;;;;;;;;;;;;24.99;38.36;93861.50;4957246;28;9126;-36
2024/01/01 08:44:59;;;;;;;;;;;;;;;25.03;38.75;93861.22;4960127;28;7181;-36
2024/01/01 08:47:53;;;;;;;;;;;;;;;25.03;38.17;93869.47;4954887;28;7287;-36
2024/01/01 08:50:26;;;;;;;;;;;;;;;25.01;38.60;93874.75;4956550;28;9178;-36
2024/01/01 08:53:06;;;;;;;;;;;;;;;24.99;38.28;93864.25;4974477;28;7240;-36
2024/01/01 08:56:04;;;;;;;;;;;;;;;25.03;38.37;93880.47;4961462;28;9105;-36
2024/01/01 08:58:34;;;;;;;;;;;;;;;25.06;38.55;93873.91;4863078;29;9135;-36
2024/01/01 09:01:38;;;;;;;;;;;;;;;25.13;38.33;93881.59;4886284;29;9533;-36
2024/01/01 09:04:07;;;;;;;;;;;;;;;25.18;38.79;93892.53;4875809;29;9307;-36
2024/01/01 09:06:34;;;;;;;;;;;;;;;25.22;38.61;93903.25;4868455;29;8845;-36
2024/01/01 09:09:19;;;;;;;;;;;;;;;25.22;38.94;93903.25;4858273;29;8540;-36
2024/01/01 09:11:47;;;;;;;;;;;;;;;25.21;39.01;93901.75;4865279;29;7401;-41
2024/01/01 09:14:29;;;;;;;;;;;;;;;25.24;38.27;93906.22;4869557;29;9600;-40
2024/01/01 09:16:56;;;;;;;;;;;;;;;25.22;38.78;93898.50;4875740;29;7261;-41
2024/01/01 09:19:30;;;;;;;;;;;;;;;25.28;39.02;93906.66;4875253;29;9157;-40
2024/01/01 09:22:05;;;;;;;;;;;;;;;25.27;38.56;93902.44;4868474;29;7164;-40
2024/01/01 09:24:36;;;;;;;;;;;;;;;25.29;38.09;93905.41;4874626;29;9235;-40
2024/01/01 09:27:47;;;;;;;;;;;;;;;25.30;38.94;93906.88;4872379;29;7055;-40
2024/01/01 09:30:47;;;;;;;;;;;;;;;25.32;38.12;93905.09;4863252;29;9021;-40
2024/01/01 09:33:22;;;;;;;;;;;;;;;25.33;38.17;93906.59;4848405;29;9186;-40
2024/01/01 09:36:01;;;;;;;;;;;;;;;25.34;37.89;93899.06;4901006;29;9139;-40
2024/01/01 09:38:29;;;;;;;;;;;;;;;25.38;38.49;93905.03;4915797;29;7462;-42
2024/01/01 09:41:27;;;;;;;;;;;;;;;25.40;38.51;93917.00;4901748;29;9770;-40
2024/01/01 09:44:28;;;;;;;;;;;;;;;25.41;37.84;93913.00;4808051;29;10209;-39
2024/01/01 09:46:54;;;;;;;;;;;;;;;25.40;38.57;93908.03;4823073;29;9051;-41
2024/01/01 09:49:21;;;;;;;;;;;;;;;25.41;38.36;93915.00;4825657;29;9478;-40
2024/01/01 09:51:50;;;;;;;;;;;;;;;25.40;38.44;93908.03;4816397;29;9122;-40
2024/01/01 09:54:17;;;;;;;;;;;;;;;25.43;37.87;93915.25;4822491;29;7255;-40
2024/01/01 09:56:55;;;;;;;;;;;;;;;25.40;38.40;93919.75;4804676;29;8095;-41
2024/01/01 09:59:39;;;;;;;;;;;;;;;25.41;38.57;93924.00;4807308;29;7273;-40
2024/01/01 10:02:23;;;;;;;;;;;;;;;25.45;37.62;93926.47;4818773;29;8857;-40
2024/01/01 10:05:10;;;;;;;;;;;;;;;25.46;38.10;93921.72;4800550;29;7256;-40
2024/01/01 10:07:50;;;;;;;;;;;;;;;25.46;37.76;93925.22;4821891;29;7103;-39
2024/01/01 10:10:29;;;;;;;;;;;;;;;25.46;38.24;93921.72;4845006;29;8895;-40
2024/01/01 10:13:28;;;;;;;;;;;;;;;25.48;38.29;93910.94;4846268;29;7001;-40
2024/01/01 10:15:56;;;;;;;;;;;;;;;25.50;37.63;93909.16;4855341;29;9115;-39
2024/01/01 10:18:27;;;;;;;;;;;;;;;25.51;38.19;93907.91;4857631;29;7264;-39
2024/01/01 10:21:13;;;;;;;;;;;;;;;25.46;38.14;93911.47;4909643;29;8709;-58
2024/01/01 10:24:17;;;;;;;;;;;;;;;25.52;38.48;93911.38;4920003;29;9082;-58
2024/01/01 10:26:56;;;;;;;;;;;;;;;25.48;38.05;93919.94;4858262;29;7116;-58
2024/01/01 10:29:28;;;;;;;;;;;;;;;25.50;37.72;93914.66;4867917;29;8031;-58
2024/01/01 10:31:54;;;;;;;;;;;;;;;25.52;38.60;93923.13;4884089;29;7421;-58
2024/01/01 10:34:22;;;;;;;;;;;;;;;25.49;38.58;93913.16;4865643;29;7345;-57
2024/01/01 10:37:10;;;;;;;;;;;;;;;25.53;38.26;93913.63;4864196;29;9112;-58
2024/01/01 10:39:48;;;;;;;;;;;;;;;25.53;37.75;93916.38;4878799;29;7253;-58
2024/01/01 10:42:14;;;;;;;;;;;;;;;25.56;37.59;93917.31;4861470;29;7286;-58
2024/01/01 10:44:41;;;;;;;;;;;;;;;25.60;38.46;93921.25;4862206;29;9039;-58
2024/01/01 10:47:20;;;;;;;;;;;;;;;25.60;38.62;93915.75;4862924;29;7214;-58
2024/01/01 10:50:26;;;;;;;;;;;;;;;25.62;38.30;93918.72;4873688;29;9436;-58
2024/01/01 10:56:21;;;;;;;;;;;;;;;25.70;39.21;93921.63;4878681;29;8088;-59
2024/01/01 10:59:12;;;;;;;;;;;;;;;25.73;38.81;93902.03;4857320;29;7149;-56
2024/01/01 11:01:42;;;;;;;;;;;;;;;25.74;38.04;93906.31;4869675;29;9139;-54
2024/01/01 11:04:28;;;;;;;;;;;;;;;25.78;38.64;93909.50;4937525;28;7613;-57
2024/01/01 11:07:09;;;;;;;;;;;;;;;25.80;38.63;93915.22;4957645;28;7219;-57
2024/01/01 11:10:05;;;;;;;;;;;;;;;25.81;38.04;93915.97;4967488;28;7327;-57
2024/01/01 11:12:42;;;;;;;;;;;;;;;25.81;38.49;93916.72;4876682;29;8742;-57
2024/01/01 11:15:46;;;;;;;;;;;;;;;25.82;38.23;93901.66;4867262;29;9015;-58
2024/01/01 11:18:22;;;;;;;;;;;;;;;25.79;38.84;93894.47;4880811;29;7945;-58
2024/01/01 11:21:01;;;;;;;;;;;;;;;25.80;38.50;93895.94;4876927;29;7097;-58
2024/01/01 11:23:44;;;;;;;;;;;;;;;25.80;38.16;93884.91;4878812;29;9084;-58
2024/01/01 11:26:40;;;;;;;;;;;;;;;25.80;37.85;93892.44;4895173;29;7009;-58
2024/01/01 11:29:27;;;;;;;;;;;;;;;25.80;37.81;93895.94;4892698;29;10434;-58
2024/01/01 11:32:31;;;;;;;;;;;;;;;25.79;37.70;93883.44;4892086;29;7369;-37
2024/01/01 11:35:15;;;;;;;;;;;;;;;25.78;38.21;93892.97;4878724;29;7232;-37
2024/01/01 11:37:43;;;;;;;;;;;;;;;25.78;37.81;93887.47;4876506;29;9259;-37
2024/01/01 11:40:28;;;;;;;;;;;;;;;25.79;37.53;93888.22;4881476;29;9008;-37
2024/01/01 11:43:08;;;;;;;;;;;;;;;25.79;37.59;93891.72;4893338;29;7085;-37
2024/01/01 11:45:45;;;;;;;;;;;;;;;25.77;38.30;93891.50;4873762;29;9094;-37
2024/01/01 11:48:18;;;;;;;;;;;;;;;25.76;38.35;93894.75;4879630;28;72903;-36
2024/01/01 11:50:49;;;;;;;;;;;;;;;25.75;37.80;93896.75;4917365;29;18875;-37
2024/01/01 11:53:16;;;;;;;;;;;;;;;25.72;37.73;93892.31;4892967;29;7318;-37
2024/01/01 11:55:45;;;;;;;;;;;;;;;25.72;38.14;93888.81;4916891;29;7983;-37
2024/01/01 11:58:34;;;;;;;;;;;;;;;25.71;38.70;93885.31;4916792;29;9259;-37
2024/01/01 12:01:04;;;;;;;;;;;;;;;25.69;38.30;93874.06;4885539;29;9063;-37
2024/01/01 12:03:32;;;;;;;;;;;;;;;25.71;38.61;93882.56;4924910;29;9028;-37
2024/01/01 12:06:06;;;;;;;;;;;;;;;25.73;38.99;93885.53;4918237;29;7068;-37
2024/01/01 12:08:34;;;;;;;;;;;;;;;25.73;39.48;93885.53;4921214;29;7903;-37
2024/01/01 12:11:17;;;;;;;;;;;;;;;25.74;39.04;93886.28;4935553;29;9012;-37
2024/01/01 12:13:57;;;;;;;;;;;;;;;25.76;39.46;93884.47;4910403;29;9078;-37
2024/01/01 12:16:51;;;;;;;;;;;;;;;25.79;38.84;93880.69;4947396;28;8193;-37
2024/01/01 12:19:22;;;;;;;;;;;;;;;25.82;39.28;93881.63;4921784;29;9289;-37
2024/01/01 12:21:52;;;;;;;;;;;;;;;25.78;39.55;93875.69;4897918;29;7394;-37
2024/01/01 12:24:21;;;;;;;;;;;;;;;25.80;38.95;93873.91;4910078;29;8766;-37
2024/01/01 12:26:52;;;;;;;;;;;;;;;25.83;39.75;93877.63;4902098;29;7241;-37
2024/01/01 12:29:22;;;;;;;;;;;;;;;25.81;39.76;93871.91;4911146;29;9327;-37
2024/01/01 12:31:50;;;;;;;;;;;;;;;25.81;39.11;93869.88;4898997;29;8862;-37
2024/01/01 12:34:18;;;;;;;;;;;;;;;25.83;39.22;93872.88;4897812;29;9109;-37
2024/01/01 12:36:48;;;;;;;;;;;;;;;25.82;39.07;93873.38;4889363;29;7259;-37
2024/01/01 12:39:20;;;;;;;;;;;;;;;25.85;38.92;93867.56;4909697;29;7037;-40
2024/01/01 12:41:46;;;;;;;;;;;;;;;25.84;39.56;93870.81;4906868;29;7271;-40
2024/01/01 12:44:15;;;;;;;;;;;;;;;25.83;39.29;93872.88;4918846;29;7504;-40
2024/01/01 12:46:41;;;;;;;;;;;;;;;25.81;39.14;93880.16;4908586;29;7030;-40
2024/01/01 12:49:08;;;;;;;;;;;;;;;25.85;39.43;93883.34;4923231;29;7049;-40
2024/01/01 12:51:35;;;;;;;;;;;;;;;25.82;39.08;93876.13;4907187;29;9220;-40
2024/01/01 12:54:02;;;;;;;;;;;;;;;25.79;39.48;93877.94;4896387;29;7277;-39
2024/01/01 12:56:30;;;;;;;;;;;;;;;25.81;39.03;93874.66;4906014;29;7063;-42
2024/01/01 12:58:56;;;;;;;;;;;;;;;25.79;39.19;93871.69;4935758;29;9096;-40
2024/01/01 13:01:27;;;;;;;;;;;;;;;25.77;39.45;93865.94;4933571;29;9078;-40
2024/01/01 13:03:53;;;;;;;;;;;;;;;25.78;39.53;93870.19;4914752;29;7433;-40
2024/01/01 13:06:22;;;;;;;;;;;;;;;25.78;39.25;93870.19;4920106;29;7305;-40
2024/01/01 13:08:55;;;;;;;;;;;;;;;25.81;39.90;93866.38;4940480;29;9050;-39
2024/01/01 13:11:22;;;;;;;;;;;;;;;25.84;39.27;93868.06;4916714;29;7238;-40
2024/01/01 13:13:48;;;;;;;;;;;;;;;25.83;39.86;93867.34;4918837;29;7260;-40
2024/01/01 13:16:17;;;;;;;;;;;;;;;25.83;39.90;93864.59;4926909;29;7901;-40
2024/01/01 13:18:44;;;;;;;;;;;;;;;25.85;39.02;93864.06;4918716;29;6969;-39
2024/01/01 13:21:12;;;;;;;;;;;;;;;25.82;39.38;93865.09;4919623;29;9194;-40
2024/01/01 13:23:41;;;;;;;;;;;;;;;25.82;39.51;93860.34;4935698;29;7316;-39
2024/01/01 13:26:07;;;;;;;;;;;;;;;25.85;38.99;93866.81;4920225;29;7264;-40
2024/01/01 13:28:33;;;;;;;;;;;;;;;25.84;39.50;93855.06;4918991;29;7174;-40
2024/01/01 13:31:02;;;;;;;;;;;;;;;25.82;39.90;93854.84;4921759;29;8146;-40
2024/01/01 13:33:35;;;;;;;;;;;;;;;25.84;39.37;93857.06;4931690;28;9121;-40
2024/01/01 13:36:02;;;;;;;;;;;;;;;25.85;39.82;93853.78;4923973;29;7230;-39
2024/01/01 13:38:35;;;;;;;;;;;;;;;25.85;39.21;93853.03;4918756;29;9384;-40
2024/01/01 13:41:01;;;;;;;;;;;;;;;25.87;39.49;93848.50;4921478;28;7292;-40
2024/01/01 13:43:27;;;;;;;;;;;;;;;25.89;39.94;93845.97;4940493;28;9219;-40